sensor_id;sensor_type;location;lat;lon;timestamp;P1;durP1;ratioP1;P2;durP2;ratioP2
34499;SDS011;20745;50.882;6.962;2023-03-04T00:01:15;131.77;;;53.97;;
34499;SDS011;20745;50.882;6.962;2023-03-04T00:03:41;131.38;;;53.53;;
34499;SDS011;20745;50.882;6.962;2023-03-04T00:06:08;128.60;;;52.42;;
34499;SDS011;20745;50.882;6.962;2023-03-04T00:08:35;126.60;;;53.20;;
34499;SDS011;20745;50.882;6.962;2023-03-04T00:11:02;125.32;;;54.75;;
34499;SDS011;20745;50.882;6.962;2023-03-04T00:13:28;126.93;;;53.35;;
34499;SDS011;20745;50.882;6.962;2023-03-04T00:15:55;124.43;;;53.63;;
34499;SDS011;20745;50.882;6.962;2023-03-04T00:18:22;131.20;;;52.97;;
34499;SDS011;20745;50.882;6.962;2023-03-04T00:20:48;123.60;;;52.97;;
34499;SDS011;20745;50.882;6.962;2023-03-04T00:23:15;128.73;;;53.05;;
34499;SDS011;20745;50.882;6.962;2023-03-04T00:25:42;124.55;;;52.22;;
34499;SDS011;20745;50.882;6.962;2023-03-04T00:28:09;124.43;;;48.33;;
34499;SDS011;20745;50.882;6.962;2023-03-04T00:30:36;122.35;;;51.15;;
34499;SDS011;20745;50.882;6.962;2023-03-04T00:33:03;118.82;;;52.38;;
34499;SDS011;20745;50.882;6.962;2023-03-04T00:35:29;118.43;;;50.15;;
34499;SDS011;20745;50.882;6.962;2023-03-04T00:37:56;117.63;;;50.00;;
34499;SDS011;20745;50.882;6.962;2023-03-04T00:40:22;117.47;;;50.00;;
34499;SDS011;20745;50.882;6.962;2023-03-04T00:42:49;109.65;;;46.47;;
34499;SDS011;20745;50.882;6.962;2023-03-04T00:45:16;106.72;;;45.22;;
34499;SDS011;20745;50.882;6.962;2023-03-04T00:47:43;105.95;;;45.25;;
34499;SDS011;20745;50.882;6.962;2023-03-04T00:50:09;111.32;;;45.88;;
34499;SDS011;20745;50.882;6.962;2023-03-04T00:52:36;102.50;;;43.42;;
34499;SDS011;20745;50.882;6.962;2023-03-04T00:55:03;105.55;;;44.58;;
34499;SDS011;20745;50.882;6.962;2023-03-04T00:57:31;105.72;;;44.88;;
34499;SDS011;20745;50.882;6.962;2023-03-04T00:59:58;101.15;;;42.75;;
34499;SDS011;20745;50.882;6.962;2023-03-04T01:02:25;111.78;;;44.10;;
34499;SDS011;20745;50.882;6.962;2023-03-04T01:04:52;102.85;;;41.55;;
34499;SDS011;20745;50.882;6.962;2023-03-04T01:07:19;101.38;;;42.03;;
34499;SDS011;20745;50.882;6.962;2023-03-04T01:09:45;95.05;;;40.53;;
34499;SDS011;20745;50.882;6.962;2023-03-04T01:12:12;96.47;;;40.60;;
34499;SDS011;20745;50.882;6.962;2023-03-04T01:14:38;92.68;;;38.33;;
34499;SDS011;20745;50.882;6.962;2023-03-04T01:17:05;93.35;;;39.65;;
34499;SDS011;20745;50.882;6.962;2023-03-04T01:19:32;94.78;;;39.88;;
34499;SDS011;20745;50.882;6.962;2023-03-04T01:21:59;89.70;;;39.17;;
34499;SDS011;20745;50.882;6.962;2023-03-04T01:24:25;95.93;;;37.75;;
34499;SDS011;20745;50.882;6.962;2023-03-04T01:26:52;92.13;;;37.45;;
34499;SDS011;20745;50.882;6.962;2023-03-04T01:29:19;96.15;;;38.67;;
34499;SDS011;20745;50.882;6.962;2023-03-04T01:31:45;91.50;;;39.05;;
34499;SDS011;20745;50.882;6.962;2023-03-04T01:34:12;81.55;;;35.90;;
34499;SDS011;20745;50.882;6.962;2023-03-04T01:36:38;87.28;;;36.70;;
34499;SDS011;20745;50.882;6.962;2023-03-04T01:39:05;85.43;;;37.63;;
34499;SDS011;20745;50.882;6.962;2023-03-04T01:41:31;89.10;;;36.67;;
34499;SDS011;20745;50.882;6.962;2023-03-04T01:43:58;95.80;;;37.08;;
34499;SDS011;20745;50.882;6.962;2023-03-04T01:46:27;83.43;;;36.20;;
34499;SDS011;20745;50.882;6.962;2023-03-04T01:48:55;87.30;;;34.63;;
34499;SDS011;20745;50.882;6.962;2023-03-04T01:51:22;89.03;;;35.38;;
34499;SDS011;20745;50.882;6.962;2023-03-04T01:53:49;76.28;;;33.70;;
34499;SDS011;20745;50.882;6.962;2023-03-04T01:56:19;74.93;;;33.13;;
34499;SDS011;20745;50.882;6.962;2023-03-04T02:01:39;70.32;;;29.77;;
34499;SDS011;20745;50.882;6.962;2023-03-04T02:04:08;62.03;;;25.25;;
34499;SDS011;20745;50.882;6.962;2023-03-04T02:06:37;67.22;;;27.73;;
34499;SDS011;20745;50.882;6.962;2023-03-04T02:11:33;53.88;;;20.67;;
34499;SDS011;20745;50.882;6.962;2023-03-04T02:14:00;51.03;;;21.75;;
34499;SDS011;20745;50.882;6.962;2023-03-04T02:16:27;50.70;;;21.02;;
34499;SDS011;20745;50.882;6.962;2023-03-04T02:18:54;50.03;;;19.10;;
34499;SDS011;20745;50.882;6.962;2023-03-04T02:21:22;46.10;;;18.38;;
34499;SDS011;20745;50.882;6.962;2023-03-04T02:23:59;48.17;;;19.48;;
34499;SDS011;20745;50.882;6.962;2023-03-04T02:26:44;50.10;;;19.20;;
34499;SDS011;20745;50.882;6.962;2023-03-04T02:29:12;48.17;;;18.92;;
34499;SDS011;20745;50.882;6.962;2023-03-04T02:31:42;36.53;;;13.60;;
34499;SDS011;20745;50.882;6.962;2023-03-04T02:34:11;42.85;;;17.65;;
34499;SDS011;20745;50.882;6.962;2023-03-04T02:36:40;43.88;;;16.25;;
34499;SDS011;20745;50.882;6.962;2023-03-04T02:39:21;39.08;;;15.65;;
34499;SDS011;20745;50.882;6.962;2023-03-04T02:41:53;47.40;;;17.77;;
34499;SDS011;20745;50.882;6.962;2023-03-04T02:44:28;44.63;;;17.00;;
34499;SDS011;20745;50.882;6.962;2023-03-04T02:46:57;43.28;;;16.30;;
34499;SDS011;20745;50.882;6.962;2023-03-04T02:49:25;40.55;;;15.88;;
34499;SDS011;20745;50.882;6.962;2023-03-04T02:51:57;47.63;;;16.42;;
34499;SDS011;20745;50.882;6.962;2023-03-04T02:54:26;39.58;;;15.85;;
34499;SDS011;20745;50.882;6.962;2023-03-04T02:56:54;46.38;;;15.85;;
34499;SDS011;20745;50.882;6.962;2023-03-04T02:59:22;47.20;;;16.67;;
34499;SDS011;20745;50.882;6.962;2023-03-04T03:01:49;39.17;;;15.60;;
34499;SDS011;20745;50.882;6.962;2023-03-04T03:04:16;49.83;;;16.35;;
34499;SDS011;20745;50.882;6.962;2023-03-04T03:06:44;45.83;;;15.82;;
34499;SDS011;20745;50.882;6.962;2023-03-04T03:09:10;44.60;;;15.90;;
34499;SDS011;20745;50.882;6.962;2023-03-04T03:11:37;47.00;;;16.02;;
34499;SDS011;20745;50.882;6.962;2023-03-04T03:14:04;43.85;;;17.10;;
34499;SDS011;20745;50.882;6.962;2023-03-04T03:16:32;43.83;;;16.45;;
34499;SDS011;20745;50.882;6.962;2023-03-04T03:18:58;41.00;;;15.43;;
34499;SDS011;20745;50.882;6.962;2023-03-04T03:21:25;45.33;;;16.88;;
34499;SDS011;20745;50.882;6.962;2023-03-04T03:23:51;42.90;;;15.00;;
34499;SDS011;20745;50.882;6.962;2023-03-04T03:26:18;45.40;;;16.40;;
34499;SDS011;20745;50.882;6.962;2023-03-04T03:28:45;39.22;;;14.95;;
34499;SDS011;20745;50.882;6.962;2023-03-04T03:31:12;42.70;;;15.43;;
34499;SDS011;20745;50.882;6.962;2023-03-04T03:33:38;41.78;;;15.93;;
34499;SDS011;20745;50.882;6.962;2023-03-04T03:36:05;42.65;;;14.82;;
34499;SDS011;20745;50.882;6.962;2023-03-04T03:38:33;37.47;;;15.70;;
34499;SDS011;20745;50.882;6.962;2023-03-04T03:40:59;46.30;;;15.75;;
34499;SDS011;20745;50.882;6.962;2023-03-04T03:43:26;44.70;;;14.77;;
34499;SDS011;20745;50.882;6.962;2023-03-04T03:45:52;48.13;;;15.32;;
34499;SDS011;20745;50.882;6.962;2023-03-04T03:48:19;42.50;;;15.68;;
34499;SDS011;20745;50.882;6.962;2023-03-04T03:50:45;38.35;;;13.57;;
34499;SDS011;20745;50.882;6.962;2023-03-04T03:53:12;40.30;;;13.75;;
34499;SDS011;20745;50.882;6.962;2023-03-04T03:55:38;41.65;;;14.68;;
34499;SDS011;20745;50.882;6.962;2023-03-04T03:58:05;42.88;;;14.15;;
34499;SDS011;20745;50.882;6.962;2023-03-04T04:00:31;41.80;;;13.73;;
34499;SDS011;20745;50.882;6.962;2023-03-04T04:02:58;43.60;;;15.55;;
34499;SDS011;20745;50.882;6.962;2023-03-04T04:05:26;43.70;;;15.60;;
34499;SDS011;20745;50.882;6.962;2023-03-04T04:07:52;43.35;;;15.50;;
34499;SDS011;20745;50.882;6.962;2023-03-04T04:10:19;48.33;;;15.35;;
34499;SDS011;20745;50.882;6.962;2023-03-04T04:12:46;38.70;;;14.77;;
34499;SDS011;20745;50.882;6.962;2023-03-04T04:15:13;45.42;;;14.52;;
34499;SDS011;20745;50.882;6.962;2023-03-04T04:17:39;43.63;;;15.10;;
34499;SDS011;20745;50.882;6.962;2023-03-04T04:20:06;39.67;;;13.40;;
34499;SDS011;20745;50.882;6.962;2023-03-04T04:22:33;45.45;;;15.15;;
34499;SDS011;20745;50.882;6.962;2023-03-04T04:25:00;46.92;;;15.43;;
34499;SDS011;20745;50.882;6.962;2023-03-04T04:27:27;40.08;;;14.10;;
34499;SDS011;20745;50.882;6.962;2023-03-04T04:29:53;40.50;;;14.23;;
34499;SDS011;20745;50.882;6.962;2023-03-04T04:32:20;39.97;;;14.18;;
34499;SDS011;20745;50.882;6.962;2023-03-04T04:34:46;44.33;;;14.35;;
34499;SDS011;20745;50.882;6.962;2023-03-04T04:37:13;47.72;;;15.75;;
34499;SDS011;20745;50.882;6.962;2023-03-04T04:39:39;44.00;;;14.48;;
34499;SDS011;20745;50.882;6.962;2023-03-04T04:42:07;48.58;;;14.60;;
34499;SDS011;20745;50.882;6.962;2023-03-04T04:44:35;41.97;;;14.85;;
34499;SDS011;20745;50.882;6.962;2023-03-04T04:47:04;45.60;;;14.83;;
34499;SDS011;20745;50.882;6.962;2023-03-04T04:49:32;46.23;;;13.90;;
34499;SDS011;20745;50.882;6.962;2023-03-04T04:51:59;37.40;;;13.75;;
34499;SDS011;20745;50.882;6.962;2023-03-04T04:54:25;41.17;;;14.20;;
34499;SDS011;20745;50.882;6.962;2023-03-04T04:56:52;37.60;;;13.15;;
34499;SDS011;20745;50.882;6.962;2023-03-04T04:59:19;41.40;;;12.95;;
34499;SDS011;20745;50.882;6.962;2023-03-04T05:01:45;37.35;;;12.38;;
34499;SDS011;20745;50.882;6.962;2023-03-04T05:04:12;40.38;;;12.82;;
34499;SDS011;20745;50.882;6.962;2023-03-04T05:06:38;40.60;;;12.05;;
34499;SDS011;20745;50.882;6.962;2023-03-04T05:09:05;36.63;;;11.68;;
34499;SDS011;20745;50.882;6.962;2023-03-04T05:11:32;37.95;;;12.10;;
34499;SDS011;20745;50.882;6.962;2023-03-04T05:13:59;33.00;;;11.63;;
34499;SDS011;20745;50.882;6.962;2023-03-04T05:16:25;41.42;;;14.23;;
34499;SDS011;20745;50.882;6.962;2023-03-04T05:18:52;44.78;;;14.20;;
34499;SDS011;20745;50.882;6.962;2023-03-04T05:21:19;45.08;;;14.50;;
34499;SDS011;20745;50.882;6.962;2023-03-04T05:23:45;40.95;;;14.55;;
34499;SDS011;20745;50.882;6.962;2023-03-04T05:26:13;42.30;;;14.00;;
34499;SDS011;20745;50.882;6.962;2023-03-04T05:28:43;41.90;;;13.88;;
34499;SDS011;20745;50.882;6.962;2023-03-04T05:31:10;42.80;;;13.70;;
34499;SDS011;20745;50.882;6.962;2023-03-04T05:33:37;39.70;;;13.93;;
34499;SDS011;20745;50.882;6.962;2023-03-04T05:36:04;43.75;;;13.68;;
34499;SDS011;20745;50.882;6.962;2023-03-04T05:38:32;41.50;;;15.13;;
34499;SDS011;20745;50.882;6.962;2023-03-04T05:41:00;42.88;;;14.40;;
34499;SDS011;20745;50.882;6.962;2023-03-04T05:43:29;45.42;;;12.80;;
34499;SDS011;20745;50.882;6.962;2023-03-04T05:45:56;38.42;;;14.10;;
34499;SDS011;20745;50.882;6.962;2023-03-04T05:48:23;39.17;;;13.20;;
34499;SDS011;20745;50.882;6.962;2023-03-04T05:50:53;38.25;;;11.32;;
34499;SDS011;20745;50.882;6.962;2023-03-04T05:53:20;38.70;;;10.85;;
34499;SDS011;20745;50.882;6.962;2023-03-04T05:55:47;34.55;;;10.10;;
34499;SDS011;20745;50.882;6.962;2023-03-04T05:58:14;36.05;;;10.25;;
34499;SDS011;20745;50.882;6.962;2023-03-04T06:00:42;32.35;;;10.43;;
34499;SDS011;20745;50.882;6.962;2023-03-04T06:03:12;40.80;;;10.02;;
34499;SDS011;20745;50.882;6.962;2023-03-04T06:05:41;37.05;;;10.45;;
34499;SDS011;20745;50.882;6.962;2023-03-04T06:08:08;29.63;;;8.60;;
34499;SDS011;20745;50.882;6.962;2023-03-04T06:10:35;40.90;;;8.63;;
34499;SDS011;20745;50.882;6.962;2023-03-04T06:13:03;33.95;;;9.23;;
34499;SDS011;20745;50.882;6.962;2023-03-04T06:15:29;24.95;;;7.90;;
34499;SDS011;20745;50.882;6.962;2023-03-04T06:17:56;29.50;;;7.90;;
34499;SDS011;20745;50.882;6.962;2023-03-04T06:20:23;27.95;;;6.95;;
34499;SDS011;20745;50.882;6.962;2023-03-04T06:22:49;36.67;;;8.27;;
34499;SDS011;20745;50.882;6.962;2023-03-04T06:25:16;29.23;;;6.93;;
34499;SDS011;20745;50.882;6.962;2023-03-04T06:27:42;26.25;;;6.45;;
34499;SDS011;20745;50.882;6.962;2023-03-04T06:30:09;21.17;;;6.60;;
34499;SDS011;20745;50.882;6.962;2023-03-04T06:32:36;30.90;;;7.55;;
34499;SDS011;20745;50.882;6.962;2023-03-04T06:35:02;26.45;;;5.63;;
34499;SDS011;20745;50.882;6.962;2023-03-04T06:37:29;32.28;;;5.60;;
34499;SDS011;20745;50.882;6.962;2023-03-04T06:39:56;27.98;;;5.55;;
34499;SDS011;20745;50.882;6.962;2023-03-04T06:42:22;21.65;;;4.75;;
34499;SDS011;20745;50.882;6.962;2023-03-04T06:44:49;26.80;;;5.15;;
34499;SDS011;20745;50.882;6.962;2023-03-04T06:47:18;22.00;;;4.70;;
34499;SDS011;20745;50.882;6.962;2023-03-04T06:49:44;19.83;;;4.88;;
34499;SDS011;20745;50.882;6.962;2023-03-04T06:52:11;24.45;;;5.07;;
34499;SDS011;20745;50.882;6.962;2023-03-04T06:54:38;24.77;;;5.45;;
34499;SDS011;20745;50.882;6.962;2023-03-04T06:57:05;25.30;;;5.55;;
34499;SDS011;20745;50.882;6.962;2023-03-04T06:59:32;28.38;;;6.63;;
34499;SDS011;20745;50.882;6.962;2023-03-04T07:01:59;22.52;;;5.22;;
34499;SDS011;20745;50.882;6.962;2023-03-04T07:04:26;24.70;;;5.65;;
34499;SDS011;20745;50.882;6.962;2023-03-04T07:06:52;22.08;;;5.72;;
34499;SDS011;20745;50.882;6.962;2023-03-04T07:09:19;24.02;;;5.43;;
34499;SDS011;20745;50.882;6.962;2023-03-04T07:11:45;24.23;;;4.95;;
34499;SDS011;20745;50.882;6.962;2023-03-04T07:14:12;26.35;;;4.60;;
34499;SDS011;20745;50.882;6.962;2023-03-04T07:16:39;17.27;;;4.10;;
34499;SDS011;20745;50.882;6.962;2023-03-04T07:19:05;28.15;;;4.32;;
34499;SDS011;20745;50.882;6.962;2023-03-04T07:21:32;22.70;;;4.40;;
34499;SDS011;20745;50.882;6.962;2023-03-04T07:23:59;24.33;;;4.05;;
34499;SDS011;20745;50.882;6.962;2023-03-04T07:26:25;25.85;;;4.45;;
34499;SDS011;20745;50.882;6.962;2023-03-04T07:28:52;23.17;;;3.90;;
34499;SDS011;20745;50.882;6.962;2023-03-04T07:31:23;28.13;;;4.18;;
34499;SDS011;20745;50.882;6.962;2023-03-04T07:33:56;18.88;;;3.85;;
34499;SDS011;20745;50.882;6.962;2023-03-04T07:36:24;23.83;;;4.40;;
34499;SDS011;20745;50.882;6.962;2023-03-04T07:38:51;20.15;;;4.32;;
34499;SDS011;20745;50.882;6.962;2023-03-04T07:41:20;19.63;;;4.45;;
34499;SDS011;20745;50.882;6.962;2023-03-04T07:43:48;19.73;;;4.07;;
34499;SDS011;20745;50.882;6.962;2023-03-04T07:46:15;25.05;;;4.32;;
34499;SDS011;20745;50.882;6.962;2023-03-04T07:48:42;25.15;;;4.53;;
34499;SDS011;20745;50.882;6.962;2023-03-04T07:51:10;17.77;;;4.38;;
34499;SDS011;20745;50.882;6.962;2023-03-04T07:53:38;21.08;;;4.38;;
34499;SDS011;20745;50.882;6.962;2023-03-04T07:56:06;20.10;;;4.07;;
34499;SDS011;20745;50.882;6.962;2023-03-04T07:58:34;20.13;;;3.55;;
34499;SDS011;20745;50.882;6.962;2023-03-04T08:01:00;17.77;;;4.00;;
34499;SDS011;20745;50.882;6.962;2023-03-04T08:03:33;20.48;;;3.35;;
34499;SDS011;20745;50.882;6.962;2023-03-04T08:05:59;21.42;;;4.00;;
34499;SDS011;20745;50.882;6.962;2023-03-04T08:08:29;14.90;;;3.15;;
34499;SDS011;20745;50.882;6.962;2023-03-04T08:10:55;19.83;;;4.13;;
34499;SDS011;20745;50.882;6.962;2023-03-04T08:13:22;20.63;;;3.70;;
34499;SDS011;20745;50.882;6.962;2023-03-04T08:15:51;20.50;;;3.55;;
34499;SDS011;20745;50.882;6.962;2023-03-04T08:18:17;20.02;;;3.50;;
34499;SDS011;20745;50.882;6.962;2023-03-04T08:20:44;21.20;;;3.70;;
34499;SDS011;20745;50.882;6.962;2023-03-04T08:23:10;24.45;;;3.95;;
34499;SDS011;20745;50.882;6.962;2023-03-04T08:25:47;23.20;;;3.50;;
34499;SDS011;20745;50.882;6.962;2023-03-04T08:28:14;20.27;;;3.78;;
34499;SDS011;20745;50.882;6.962;2023-03-04T08:30:41;14.02;;;2.90;;
34499;SDS011;20745;50.882;6.962;2023-03-04T08:33:08;16.77;;;3.38;;
34499;SDS011;20745;50.882;6.962;2023-03-04T08:35:36;20.70;;;3.58;;
34499;SDS011;20745;50.882;6.962;2023-03-04T08:38:04;22.48;;;3.22;;
34499;SDS011;20745;50.882;6.962;2023-03-04T08:40:31;25.08;;;3.50;;
34499;SDS011;20745;50.882;6.962;2023-03-04T08:42:58;17.65;;;3.65;;
34499;SDS011;20745;50.882;6.962;2023-03-04T08:45:24;20.98;;;3.13;;
34499;SDS011;20745;50.882;6.962;2023-03-04T08:47:51;23.58;;;3.63;;
34499;SDS011;20745;50.882;6.962;2023-03-04T08:50:17;17.08;;;2.83;;
34499;SDS011;20745;50.882;6.962;2023-03-04T08:52:47;22.80;;;4.50;;
34499;SDS011;20745;50.882;6.962;2023-03-04T08:55:14;20.10;;;3.45;;
34499;SDS011;20745;50.882;6.962;2023-03-04T08:57:40;15.48;;;2.88;;
34499;SDS011;20745;50.882;6.962;2023-03-04T09:00:07;14.20;;;3.97;;
34499;SDS011;20745;50.882;6.962;2023-03-04T09:02:35;18.55;;;2.83;;
34499;SDS011;20745;50.882;6.962;2023-03-04T09:05:01;18.25;;;2.90;;
34499;SDS011;20745;50.882;6.962;2023-03-04T09:07:28;18.05;;;3.35;;
34499;SDS011;20745;50.882;6.962;2023-03-04T09:09:54;17.80;;;2.67;;
34499;SDS011;20745;50.882;6.962;2023-03-04T09:12:21;25.02;;;3.53;;
34499;SDS011;20745;50.882;6.962;2023-03-04T09:14:47;19.17;;;3.50;;
34499;SDS011;20745;50.882;6.962;2023-03-04T09:17:33;15.25;;;2.72;;
34499;SDS011;20745;50.882;6.962;2023-03-04T09:20:00;16.90;;;3.03;;
34499;SDS011;20745;50.882;6.962;2023-03-04T09:24:56;16.15;;;3.00;;
34499;SDS011;20745;50.882;6.962;2023-03-04T09:27:22;13.75;;;2.97;;
34499;SDS011;20745;50.882;6.962;2023-03-04T09:29:49;11.07;;;2.80;;
34499;SDS011;20745;50.882;6.962;2023-03-04T09:32:15;17.67;;;4.38;;
34499;SDS011;20745;50.882;6.962;2023-03-04T09:34:42;21.52;;;3.10;;
34499;SDS011;20745;50.882;6.962;2023-03-04T09:37:09;16.58;;;2.95;;
34499;SDS011;20745;50.882;6.962;2023-03-04T09:39:35;14.65;;;3.03;;
34499;SDS011;20745;50.882;6.962;2023-03-04T09:42:02;22.65;;;3.13;;
34499;SDS011;20745;50.882;6.962;2023-03-04T09:44:32;14.27;;;2.70;;
34499;SDS011;20745;50.882;6.962;2023-03-04T09:47:03;12.77;;;2.40;;
34499;SDS011;20745;50.882;6.962;2023-03-04T09:49:36;14.77;;;2.38;;
34499;SDS011;20745;50.882;6.962;2023-03-04T09:52:22;18.08;;;2.50;;
34499;SDS011;20745;50.882;6.962;2023-03-04T09:55:16;12.48;;;2.28;;
34499;SDS011;20745;50.882;6.962;2023-03-04T10:11:15;14.15;;;2.63;;
34499;SDS011;20745;50.882;6.962;2023-03-04T10:16:41;12.25;;;2.45;;
34499;SDS011;20745;50.882;6.962;2023-03-04T10:21:49;13.63;;;3.10;;
34499;SDS011;20745;50.882;6.962;2023-03-04T10:24:18;10.82;;;2.08;;
34499;SDS011;20745;50.882;6.962;2023-03-04T10:26:49;13.60;;;2.40;;
34499;SDS011;20745;50.882;6.962;2023-03-04T10:29:20;18.40;;;2.65;;
34499;SDS011;20745;50.882;6.962;2023-03-04T10:31:50;16.63;;;2.67;;
34499;SDS011;20745;50.882;6.962;2023-03-04T10:34:17;17.60;;;3.38;;
34499;SDS011;20745;50.882;6.962;2023-03-04T10:39:18;16.10;;;2.95;;
34499;SDS011;20745;50.882;6.962;2023-03-04T10:41:55;14.13;;;2.67;;
34499;SDS011;20745;50.882;6.962;2023-03-04T10:44:25;11.85;;;2.40;;
34499;SDS011;20745;50.882;6.962;2023-03-04T10:46:53;16.52;;;2.45;;
34499;SDS011;20745;50.882;6.962;2023-03-04T10:49:21;15.35;;;3.35;;
34499;SDS011;20745;50.882;6.962;2023-03-04T10:51:54;10.85;;;2.08;;
34499;SDS011;20745;50.882;6.962;2023-03-04T10:57:13;10.93;;;2.00;;
34499;SDS011;20745;50.882;6.962;2023-03-04T10:59:43;13.50;;;2.42;;
34499;SDS011;20745;50.882;6.962;2023-03-04T11:07:40;14.65;;;2.38;;
34499;SDS011;20745;50.882;6.962;2023-03-04T11:12:54;13.38;;;3.08;;
34499;SDS011;20745;50.882;6.962;2023-03-04T11:15:26;11.20;;;2.42;;
34499;SDS011;20745;50.882;6.962;2023-03-04T11:18:03;12.20;;;2.05;;
34499;SDS011;20745;50.882;6.962;2023-03-04T11:20:36;11.73;;;2.35;;
34499;SDS011;20745;50.882;6.962;2023-03-04T11:23:17;12.60;;;2.05;;
34499;SDS011;20745;50.882;6.962;2023-03-04T11:25:51;10.05;;;2.50;;
34499;SDS011;20745;50.882;6.962;2023-03-04T11:31:16;11.20;;;2.47;;
34499;SDS011;20745;50.882;6.962;2023-03-04T11:33:52;13.82;;;3.00;;
34499;SDS011;20745;50.882;6.962;2023-03-04T11:36:31;13.55;;;2.65;;
34499;SDS011;20745;50.882;6.962;2023-03-04T11:39:07;8.00;;;2.53;;
34499;SDS011;20745;50.882;6.962;2023-03-04T11:44:15;14.98;;;2.60;;
34499;SDS011;20745;50.882;6.962;2023-03-04T11:47:02;13.55;;;2.40;;
34499;SDS011;20745;50.882;6.962;2023-03-04T11:49:54;13.40;;;2.88;;
34499;SDS011;20745;50.882;6.962;2023-03-04T11:52:38;10.50;;;2.40;;
34499;SDS011;20745;50.882;6.962;2023-03-04T12:01:09;12.50;;;2.83;;
34499;SDS011;20745;50.882;6.962;2023-03-04T12:06:18;11.80;;;2.30;;
34499;SDS011;20745;50.882;6.962;2023-03-04T12:11:45;17.58;;;5.35;;
34499;SDS011;20745;50.882;6.962;2023-03-04T12:17:28;11.10;;;2.38;;
34499;SDS011;20745;50.882;6.962;2023-03-04T12:37:20;12.77;;;2.55;;
34499;SDS011;20745;50.882;6.962;2023-03-04T12:42:49;11.43;;;2.30;;
34499;SDS011;20745;50.882;6.962;2023-03-04T12:45:43;8.13;;;1.90;;
34499;SDS011;20745;50.882;6.962;2023-03-04T12:48:40;11.10;;;2.10;;
34499;SDS011;20745;50.882;6.962;2023-03-04T12:51:31;10.38;;;2.80;;
34499;SDS011;20745;50.882;6.962;2023-03-04T12:54:19;13.25;;;2.75;;
34499;SDS011;20745;50.882;6.962;2023-03-04T13:07:55;8.50;;;1.80;;
34499;SDS011;20745;50.882;6.962;2023-03-04T13:10:24;7.43;;;2.03;;
34499;SDS011;20745;50.882;6.962;2023-03-04T13:12:55;9.98;;;2.00;;
34499;SDS011;20745;50.882;6.962;2023-03-04T13:17:54;7.18;;;1.70;;
34499;SDS011;20745;50.882;6.962;2023-03-04T13:23:03;10.27;;;1.67;;
34499;SDS011;20745;50.882;6.962;2023-03-04T13:33:38;11.57;;;1.33;;
34499;SDS011;20745;50.882;6.962;2023-03-04T13:36:31;5.47;;;1.38;;
34499;SDS011;20745;50.882;6.962;2023-03-04T13:39:01;7.00;;;1.60;;
34499;SDS011;20745;50.882;6.962;2023-03-04T13:41:48;7.32;;;1.17;;
34499;SDS011;20745;50.882;6.962;2023-03-04T13:47:43;8.70;;;1.30;;
34499;SDS011;20745;50.882;6.962;2023-03-04T13:50:22;7.53;;;1.47;;
34499;SDS011;20745;50.882;6.962;2023-03-04T13:52:52;7.35;;;1.50;;
34499;SDS011;20745;50.882;6.962;2023-03-04T13:57:57;11.02;;;2.22;;
34499;SDS011;20745;50.882;6.962;2023-03-04T14:00:24;10.35;;;1.38;;
34499;SDS011;20745;50.882;6.962;2023-03-04T14:02:52;7.80;;;1.60;;
34499;SDS011;20745;50.882;6.962;2023-03-04T14:05:18;5.20;;;1.40;;
34499;SDS011;20745;50.882;6.962;2023-03-04T14:07:45;6.32;;;1.60;;
34499;SDS011;20745;50.882;6.962;2023-03-04T14:12:46;7.32;;;1.58;;
34499;SDS011;20745;50.882;6.962;2023-03-04T14:15:29;3.42;;;1.20;;
34499;SDS011;20745;50.882;6.962;2023-03-04T14:17:57;9.75;;;1.95;;
34499;SDS011;20745;50.882;6.962;2023-03-04T14:20:26;9.95;;;2.00;;
34499;SDS011;20745;50.882;6.962;2023-03-04T14:22:56;8.32;;;1.92;;
34499;SDS011;20745;50.882;6.962;2023-03-04T14:25:25;6.38;;;2.22;;
34499;SDS011;20745;50.882;6.962;2023-03-04T14:30:30;10.27;;;3.03;;
34499;SDS011;20745;50.882;6.962;2023-03-04T14:33:13;10.77;;;3.17;;
34499;SDS011;20745;50.882;6.962;2023-03-04T14:35:49;12.40;;;3.67;;
34499;SDS011;20745;50.882;6.962;2023-03-04T14:40:50;18.25;;;5.07;;
34499;SDS011;20745;50.882;6.962;2023-03-04T14:43:20;18.85;;;4.45;;
34499;SDS011;20745;50.882;6.962;2023-03-04T14:45:48;15.25;;;4.65;;
34499;SDS011;20745;50.882;6.962;2023-03-04T14:48:25;14.20;;;4.22;;
34499;SDS011;20745;50.882;6.962;2023-03-04T14:50:55;12.20;;;3.35;;
34499;SDS011;20745;50.882;6.962;2023-03-04T14:53:23;12.43;;;3.20;;
34499;SDS011;20745;50.882;6.962;2023-03-04T14:58:26;18.92;;;3.58;;
34499;SDS011;20745;50.882;6.962;2023-03-04T15:01:05;11.02;;;2.83;;
34499;SDS011;20745;50.882;6.962;2023-03-04T15:03:38;11.60;;;2.97;;
34499;SDS011;20745;50.882;6.962;2023-03-04T15:06:15;12.93;;;3.28;;
34499;SDS011;20745;50.882;6.962;2023-03-04T15:08:44;13.60;;;3.10;;
34499;SDS011;20745;50.882;6.962;2023-03-04T15:11:13;11.93;;;3.05;;
34499;SDS011;20745;50.882;6.962;2023-03-04T15:13:52;15.13;;;3.00;;
34499;SDS011;20745;50.882;6.962;2023-03-04T15:16:23;11.00;;;2.55;;
34499;SDS011;20745;50.882;6.962;2023-03-04T15:23:45;11.15;;;2.88;;
34499;SDS011;20745;50.882;6.962;2023-03-04T15:26:12;14.27;;;2.38;;
34499;SDS011;20745;50.882;6.962;2023-03-04T15:28:40;13.75;;;3.15;;
34499;SDS011;20745;50.882;6.962;2023-03-04T15:31:17;13.18;;;2.83;;
34499;SDS011;20745;50.882;6.962;2023-03-04T15:36:14;11.98;;;3.13;;
34499;SDS011;20745;50.882;6.962;2023-03-04T15:38:43;12.60;;;3.13;;
34499;SDS011;20745;50.882;6.962;2023-03-04T15:41:14;12.15;;;2.97;;
34499;SDS011;20745;50.882;6.962;2023-03-04T15:43:45;14.85;;;3.03;;
34499;SDS011;20745;50.882;6.962;2023-03-04T15:46:12;11.68;;;2.97;;
34499;SDS011;20745;50.882;6.962;2023-03-04T15:48:42;10.70;;;2.95;;
34499;SDS011;20745;50.882;6.962;2023-03-04T15:51:11;11.85;;;3.25;;
34499;SDS011;20745;50.882;6.962;2023-03-04T15:53:45;13.75;;;2.72;;
34499;SDS011;20745;50.882;6.962;2023-03-04T15:56:16;15.10;;;3.03;;
34499;SDS011;20745;50.882;6.962;2023-03-04T15:58:46;11.82;;;2.75;;
34499;SDS011;20745;50.882;6.962;2023-03-04T16:01:17;13.75;;;3.22;;
34499;SDS011;20745;50.882;6.962;2023-03-04T16:03:44;12.63;;;3.15;;
34499;SDS011;20745;50.882;6.962;2023-03-04T16:06:11;11.50;;;3.63;;
34499;SDS011;20745;50.882;6.962;2023-03-04T16:08:39;8.73;;;2.67;;
34499;SDS011;20745;50.882;6.962;2023-03-04T16:11:09;12.02;;;3.08;;
34499;SDS011;20745;50.882;6.962;2023-03-04T16:13:41;12.93;;;2.90;;
34499;SDS011;20745;50.882;6.962;2023-03-04T16:16:11;9.10;;;2.88;;
34499;SDS011;20745;50.882;6.962;2023-03-04T16:18:38;13.65;;;3.85;;
34499;SDS011;20745;50.882;6.962;2023-03-04T16:21:05;9.65;;;3.03;;
34499;SDS011;20745;50.882;6.962;2023-03-04T16:23:40;18.33;;;3.40;;
34499;SDS011;20745;50.882;6.962;2023-03-04T16:26:16;10.93;;;2.90;;
34499;SDS011;20745;50.882;6.962;2023-03-04T16:28:43;11.23;;;3.28;;
34499;SDS011;20745;50.882;6.962;2023-03-04T16:31:11;12.13;;;3.08;;
34499;SDS011;20745;50.882;6.962;2023-03-04T16:33:39;11.70;;;3.50;;
34499;SDS011;20745;50.882;6.962;2023-03-04T16:39:02;16.45;;;3.80;;
34499;SDS011;20745;50.882;6.962;2023-03-04T16:41:33;11.75;;;3.05;;
34499;SDS011;20745;50.882;6.962;2023-03-04T16:44:02;11.40;;;2.88;;
34499;SDS011;20745;50.882;6.962;2023-03-04T16:46:28;15.20;;;3.30;;
34499;SDS011;20745;50.882;6.962;2023-03-04T16:48:55;14.63;;;3.63;;
34499;SDS011;20745;50.882;6.962;2023-03-04T16:51:21;14.40;;;4.05;;